createdAt,value
2023-02-07T08:40:50.523Z,102312.52
2023-02-07T08:49:47.807Z,102297.30
2023-02-07T09:09:25.316Z,102282.40
2023-02-07T09:12:25.659Z,102281.52
2023-02-07T10:29:33.253Z,102277.06
2023-02-07T10:32:12.799Z,102272.94
2023-02-07T10:34:45.286Z,102274.50
2023-02-07T10:37:27.063Z,102272.73
2023-02-07T10:40:20.056Z,102266.33
2023-02-07T10:42:51.896Z,102273.88
2023-02-07T10:45:23.919Z,102274.70
2023-02-07T10:47:52.275Z,102275.27
2023-02-07T10:50:29.713Z,102271.53
2023-02-07T10:53:08.340Z,102274.76
2023-02-07T10:55:45.635Z,102275.80
2023-02-07T10:58:22.983Z,102273.38
2023-02-07T11:00:51.752Z,102275.46
2023-02-07T11:03:22.215Z,102274.27
2023-02-07T11:06:00.118Z,102283.29
2023-02-07T11:08:36.556Z,102282.95
2023-02-07T11:11:21.235Z,102281.63
2023-02-07T11:13:51.381Z,102288.14
2023-02-07T11:16:20.383Z,102289.55
2023-02-07T11:19:21.583Z,102280.83
2023-02-07T11:21:50.157Z,102280.97
2023-02-07T11:24:31.056Z,102285.76
2023-02-07T11:27:03.410Z,102287.20
2023-02-07T11:29:32.239Z,102294.27
2023-02-07T11:31:59.852Z,102291.15
2023-02-07T11:34:27.330Z,102290.17
2023-02-07T11:36:56.488Z,102292.77
2023-02-07T11:39:23.621Z,102290.15
2023-02-07T11:41:55.399Z,102293.13
2023-02-07T11:44:24.722Z,102293.36
2023-02-07T11:46:52.273Z,102289.36
2023-02-07T11:49:39.263Z,102290.38
2023-02-07T11:52:13.937Z,102291.40
2023-02-07T11:54:42.513Z,102288.21
2023-02-07T11:57:17.517Z,102288.64
2023-02-07T12:03:32.844Z,102296.72
2023-02-07T12:07:03.150Z,102292.94
2023-02-07T12:09:54.694Z,102300.15
2023-02-07T12:12:33.958Z,102299.02
2023-02-07T12:15:06.496Z,102305.17
2023-02-07T12:17:39.438Z,102302.04
2023-02-07T12:20:14.125Z,102297.27
2023-02-07T12:22:57.963Z,102296.91
2023-02-07T12:25:36.241Z,102297.27
2023-02-07T12:28:07.613Z,102295.59
2023-02-07T12:30:38.840Z,102296.83
2023-02-07T12:33:24.357Z,102294.16
2023-02-07T12:36:13.869Z,102290.27
2023-02-07T12:38:45.991Z,102300.35
2023-02-07T12:41:32.668Z,102297.95
2023-02-07T12:44:14.993Z,102299.94
2023-02-07T12:46:50.873Z,102298.55
2023-02-07T12:49:55.758Z,102304.09
2023-02-07T12:52:37.023Z,102302.27
2023-02-07T12:55:19.931Z,102306.74
2023-02-07T12:58:19.128Z,102304.25
2023-02-07T13:01:27.212Z,102308.01
2023-02-07T13:04:00.884Z,102310.94
2023-02-07T13:06:36.757Z,102307.98
2023-02-07T13:09:28.654Z,102314.08
2023-02-07T13:12:15.784Z,102314.02
2023-02-07T13:15:12.684Z,102313.10
2023-02-07T13:18:07.688Z,102313.49
2023-02-07T13:21:48.580Z,102308.16
2023-02-07T13:24:59.021Z,102313.57
2023-02-07T13:28:40.581Z,102307.06
2023-02-07T13:40:41.084Z,102311.06
2023-02-07T13:54:54.849Z,102320.21
2023-02-07T14:00:53.207Z,102334.55
2023-02-07T14:03:37.629Z,102339.48
2023-02-07T14:09:47.728Z,102345.66
2023-02-07T14:12:33.821Z,102357.45
2023-02-07T14:19:25.885Z,102366.63
2023-02-07T14:22:41.945Z,102373.49
2023-02-07T14:25:52.458Z,102378.60
2023-02-07T14:28:30.846Z,102385.17
2023-02-07T14:31:09.923Z,102387.98
2023-02-07T14:34:25.537Z,102397.71
2023-02-07T14:37:40.377Z,102395.92
2023-02-07T14:41:09.939Z,102395.20
2023-02-07T14:49:56.680Z,102409.90
2023-02-07T14:52:52.186Z,102414.20
2023-02-07T15:00:17.467Z,102435.27
2023-02-07T15:03:19.201Z,102449.16
2023-02-07T15:11:49.463Z,102469.48
2023-02-07T15:14:37.381Z,102471.26
2023-02-07T15:17:44.316Z,102474.27
2023-02-07T15:20:22.220Z,102475.04
2023-02-07T15:23:08.416Z,102485.02
2023-02-07T15:25:37.900Z,102481.77
2023-02-07T15:28:28.603Z,102485.67
2023-02-07T15:37:23.750Z,102503.20
2023-02-07T15:39:58.571Z,102509.80
2023-02-07T15:42:28.050Z,102509.23
2023-02-07T15:45:00.624Z,102504.33
2023-02-07T15:50:25.739Z,102522.23
2023-02-07T16:26:05.341Z,102578.72
2023-02-07T16:28:43.049Z,102580.82
2023-02-07T16:31:16.207Z,102586.62
2023-02-07T16:34:24.555Z,102594.59
2023-02-07T17:34:02.371Z,102655.20
2023-02-07T18:21:53.175Z,102726.87
2023-02-07T18:39:44.085Z,102752.86
2023-02-07T18:42:17.995Z,102760.18
2023-02-07T18:45:02.452Z,102765.66
2023-02-07T18:47:33.228Z,102775.54
2023-02-07T18:50:08.415Z,102776.38
2023-02-07T18:53:07.815Z,102774.27
2023-02-07T18:59:24.451Z,102789.00
2023-02-07T19:06:56.951Z,102798.56
2023-02-07T19:10:42.731Z,102798.59
2023-02-07T19:13:33.813Z,102806.41
2023-02-07T19:16:19.522Z,102809.01
2023-02-07T19:18:51.101Z,102817.34
2023-02-07T19:21:31.579Z,102819.62
2023-02-07T19:24:15.669Z,102829.45
2023-02-07T19:26:43.370Z,102828.77
2023-02-07T19:29:13.690Z,102830.73
2023-02-07T19:31:43.192Z,102828.73
2023-02-07T19:34:14.095Z,102831.26
2023-02-07T19:36:54.792Z,102821.17
2023-02-07T19:39:49.253Z,102828.73
2023-02-07T19:42:17.974Z,102825.20
2023-02-07T19:45:42.314Z,102822.35
2023-02-07T19:48:48.166Z,102827.86
2023-02-07T19:51:57.291Z,102830.52
2023-02-07T19:54:43.252Z,102835.75
2023-02-07T19:57:12.539Z,102837.24
2023-02-07T19:59:42.234Z,102840.88
2023-02-07T20:02:10.736Z,102846.59
2023-02-07T20:12:13.809Z,102863.60
2023-02-07T20:14:42.747Z,102860.81
2023-02-07T20:17:18.645Z,102867.45
2023-02-07T20:19:49.962Z,102876.23
2023-02-07T20:22:25.769Z,102874.14
2023-02-07T20:25:01.837Z,102873.22
2023-02-07T20:27:31.215Z,102885.75
2023-02-07T20:30:11.005Z,102884.33
2023-02-07T20:33:27.832Z,102886.52
2023-02-07T20:36:11.250Z,102896.11
2023-02-07T20:38:44.874Z,102903.30
2023-02-07T20:41:29.649Z,102911.75
2023-02-07T20:44:05.661Z,102913.73
2023-02-07T20:46:40.828Z,102920.18
2023-02-07T20:49:22.430Z,102925.96
2023-02-07T20:52:11.083Z,102925.00
2023-02-07T20:54:44.093Z,102937.77
2023-02-07T20:57:24.055Z,102934.13
2023-02-07T21:00:24.169Z,102934.42
2023-02-07T21:03:03.651Z,102945.50
2023-02-07T21:05:37.366Z,102943.59
2023-02-07T21:08:09.165Z,102945.11
2023-02-07T21:10:46.262Z,102954.36
2023-02-07T21:13:45.888Z,102953.79
2023-02-07T21:16:55.545Z,102964.92
2023-02-07T21:19:30.337Z,102968.66
2023-02-07T21:22:00.663Z,102976.70
2023-02-07T21:24:35.597Z,102983.56
2023-02-07T21:27:06.826Z,102991.85
2023-02-07T21:29:43.193Z,103000.11
2023-02-07T21:32:11.513Z,103008.31
2023-02-07T21:34:40.032Z,103007.81
2023-02-07T21:37:14.164Z,103009.65
2023-02-07T21:39:42.441Z,103010.08
2023-02-07T21:42:11.139Z,103007.58
2023-02-07T21:44:42.221Z,103003.96
2023-02-07T21:47:10.828Z,103012.91
2023-02-07T21:49:39.184Z,103014.79
2023-02-07T21:52:09.195Z,103013.71
2023-02-07T21:54:42.913Z,103017.89
2023-02-07T21:57:11.175Z,103023.36
2023-02-07T21:59:41.610Z,103017.80
2023-02-07T22:02:14.443Z,103017.23
2023-02-07T22:04:46.607Z,103016.73
2023-02-07T22:07:16.010Z,103017.59
2023-02-07T22:09:44.240Z,103023.19
2023-02-07T22:12:13.458Z,103022.61
2023-02-07T22:14:41.772Z,103024.49
2023-02-07T22:17:12.098Z,103023.95
2023-02-07T22:19:41.142Z,103023.52
2023-02-07T22:22:11.100Z,103024.85
2023-02-07T22:24:39.897Z,103031.58
2023-02-07T22:27:08.294Z,103030.48
2023-02-07T22:29:36.656Z,103033.27
2023-02-07T22:32:07.599Z,103035.13
2023-02-07T22:34:37.799Z,103040.81
2023-02-07T22:37:06.605Z,103040.48
2023-02-07T22:39:34.875Z,103040.80
2023-02-07T22:42:06.633Z,103040.80
2023-02-07T22:44:35.056Z,103040.90
2023-02-07T22:47:03.413Z,103037.46
2023-02-07T22:49:31.908Z,103040.17
2023-02-07T22:52:00.180Z,103038.67
2023-02-07T22:54:29.696Z,103043.17
2023-02-07T22:57:25.690Z,103045.01
2023-02-07T22:59:54.778Z,103048.51
2023-02-07T23:02:23.930Z,103045.71
2023-02-07T23:04:52.206Z,103039.36
2023-02-07T23:07:20.485Z,103039.77
2023-02-07T23:09:48.879Z,103045.77
2023-02-07T23:12:17.153Z,103045.38
2023-02-07T23:14:48.253Z,103045.72
2023-02-07T23:17:23.987Z,103047.34
2023-02-07T23:19:53.105Z,103047.13
2023-02-07T23:22:22.401Z,103044.13
2023-02-07T23:24:52.525Z,103048.27
2023-02-07T23:27:21.854Z,103046.29
2023-02-07T23:29:50.296Z,103051.81
2023-02-07T23:32:19.893Z,103055.42
2023-02-07T23:34:48.638Z,103058.73
2023-02-07T23:37:17.101Z,103061.69
2023-02-07T23:39:46.221Z,103065.34
2023-02-07T23:42:17.385Z,103066.73
2023-02-07T23:44:45.820Z,103062.59
2023-02-07T23:47:14.464Z,103069.45
2023-02-07T23:49:49.861Z,103065.33
2023-02-07T23:52:18.216Z,103072.00
2023-02-07T23:54:51.226Z,103076.46
2023-02-07T23:57:19.564Z,103078.32
2023-02-07T23:59:48.157Z,103081.85
